Mill City, Oregon
Current Conditions -  °F | °C
As of 1:56 AM on Sunday 25 Jan 2015 (Local Time) from KSLE Reporting Station
Moderate Fog Moderate Fog  
Wind Chill: 48°   Ceiling: 200
Heat Index: 48°   Visibility: 0.25mi
Dew Point: 46°   Wind: 0mph
Humidity: 93%   Direction: NA
Pressure: 30.22"   Gusts: NA
Location:  44.75°N, 122.48°W
Report Text: KSLE 250956Z AUTO 00000KT 1/4SM R31/0700FT FG VV002 09/08 A3022 RMK AO2 SLP235 T00890078
Loading
Personal Weather Stations






























Interactive Weather Map New forecast layout! Learn more

10-Day Weather Forecast

Advertisements
Track Severe Weather on mobile